sensor_id;sensor_type;location;lat;lon;timestamp;temperature;humidity
38798;SHT11;24546;52.240;16.826;2022-09-06T00:02:14;15.40;90.10
38798;SHT11;24546;52.240;16.826;2022-09-06T00:07:15;15.20;90.60
38798;SHT11;24546;52.240;16.826;2022-09-06T00:12:16;15.30;90.30
38798;SHT11;24546;52.240;16.826;2022-09-06T00:17:17;15.00;90.60
38798;SHT11;24546;52.240;16.826;2022-09-06T00:22:17;15.10;90.60
38798;SHT11;24546;52.240;16.826;2022-09-06T00:27:19;15.20;90.60
38798;SHT11;24546;52.240;16.826;2022-09-06T00:32:19;15.00;90.50
38798;SHT11;24546;52.240;16.826;2022-09-06T00:37:20;15.00;90.70
38798;SHT11;24546;52.240;16.826;2022-09-06T00:42:21;14.90;90.70
38798;SHT11;24546;52.240;16.826;2022-09-06T00:47:22;15.00;90.90
38798;SHT11;24546;52.240;16.826;2022-09-06T00:52:24;14.90;90.80
38798;SHT11;24546;52.240;16.826;2022-09-06T00:57:27;14.80;91.00
38798;SHT11;24546;52.240;16.826;2022-09-06T01:02:30;14.70;91.00
38798;SHT11;24546;52.240;16.826;2022-09-06T01:29:35;14.30;91.90
38798;SHT11;24546;52.240;16.826;2022-09-06T01:34:44;14.20;92.00
38798;SHT11;24546;52.240;16.826;2022-09-06T01:39:46;14.30;92.30
38798;SHT11;24546;52.240;16.826;2022-09-06T01:44:54;14.10;92.10
38798;SHT11;24546;52.240;16.826;2022-09-06T02:00:18;13.60;93.00
38798;SHT11;24546;52.240;16.826;2022-09-06T02:15:39;13.60;93.10
38798;SHT11;24546;52.240;16.826;2022-09-06T02:20:48;13.50;93.40
38798;SHT11;24546;52.240;16.826;2022-09-06T02:26:02;13.50;93.40
38798;SHT11;24546;52.240;16.826;2022-09-06T02:31:12;13.30;93.70
38798;SHT11;24546;52.240;16.826;2022-09-06T02:36:14;13.40;93.60
38798;SHT11;24546;52.240;16.826;2022-09-06T02:41:18;13.40;93.80
38798;SHT11;24546;52.240;16.826;2022-09-06T02:46:22;13.30;93.80
38798;SHT11;24546;52.240;16.826;2022-09-06T02:51:23;13.20;94.20
38798;SHT11;24546;52.240;16.826;2022-09-06T02:56:24;13.20;94.10
38798;SHT11;24546;52.240;16.826;2022-09-06T03:01:26;13.10;94.30
38798;SHT11;24546;52.240;16.826;2022-09-06T03:06:27;13.00;94.90
38798;SHT11;24546;52.240;16.826;2022-09-06T03:11:27;13.00;94.60
38798;SHT11;24546;52.240;16.826;2022-09-06T03:16:31;12.90;94.80
38798;SHT11;24546;52.240;16.826;2022-09-06T03:21:32;12.90;94.70
38798;SHT11;24546;52.240;16.826;2022-09-06T03:26:33;12.90;94.80
38798;SHT11;24546;52.240;16.826;2022-09-06T03:31:34;12.80;95.10
38798;SHT11;24546;52.240;16.826;2022-09-06T03:36:35;12.80;94.90
38798;SHT11;24546;52.240;16.826;2022-09-06T03:41:36;12.60;95.20
38798;SHT11;24546;52.240;16.826;2022-09-06T03:46:38;12.70;95.30
38798;SHT11;24546;52.240;16.826;2022-09-06T03:51:39;12.90;95.40
38798;SHT11;24546;52.240;16.826;2022-09-06T03:56:40;12.60;95.60
38798;SHT11;24546;52.240;16.826;2022-09-06T04:01:40;12.70;95.40
38798;SHT11;24546;52.240;16.826;2022-09-06T04:06:41;12.50;95.60
38798;SHT11;24546;52.240;16.826;2022-09-06T04:11:42;12.50;95.90
38798;SHT11;24546;52.240;16.826;2022-09-06T04:16:43;12.50;95.80
38798;SHT11;24546;52.240;16.826;2022-09-06T04:21:44;12.50;95.70
38798;SHT11;24546;52.240;16.826;2022-09-06T04:26:45;12.40;96.10
38798;SHT11;24546;52.240;16.826;2022-09-06T04:31:46;12.40;96.00
38798;SHT11;24546;52.240;16.826;2022-09-06T04:36:47;12.50;95.90
38798;SHT11;24546;52.240;16.826;2022-09-06T04:41:48;12.50;96.00
38798;SHT11;24546;52.240;16.826;2022-09-06T04:46:49;12.60;96.10
38798;SHT11;24546;52.240;16.826;2022-09-06T04:51:49;12.80;95.80
38798;SHT11;24546;52.240;16.826;2022-09-06T04:56:50;12.70;95.90
38798;SHT11;24546;52.240;16.826;2022-09-06T05:01:51;13.00;96.00
38798;SHT11;24546;52.240;16.826;2022-09-06T05:07:07;12.50;96.30
38798;SHT11;24546;52.240;16.826;2022-09-06T05:12:08;12.60;96.50
38798;SHT11;24546;52.240;16.826;2022-09-06T05:17:12;12.70;96.60
38798;SHT11;24546;52.240;16.826;2022-09-06T05:22:14;13.00;96.30
38798;SHT11;24546;52.240;16.826;2022-09-06T05:27:15;13.10;96.20
38798;SHT11;24546;52.240;16.826;2022-09-06T05:32:16;13.50;95.60
38798;SHT11;24546;52.240;16.826;2022-09-06T05:37:17;13.60;95.40
38798;SHT11;24546;52.240;16.826;2022-09-06T05:42:18;13.80;95.20
38798;SHT11;24546;52.240;16.826;2022-09-06T05:47:19;14.20;94.90
38798;SHT11;24546;52.240;16.826;2022-09-06T05:52:20;14.30;94.60
38798;SHT11;24546;52.240;16.826;2022-09-06T05:57:20;14.90;94.20
38798;SHT11;24546;52.240;16.826;2022-09-06T06:02:22;15.10;93.70
38798;SHT11;24546;52.240;16.826;2022-09-06T06:07:23;15.30;93.70
38798;SHT11;24546;52.240;16.826;2022-09-06T06:12:24;15.50;93.10
38798;SHT11;24546;52.240;16.826;2022-09-06T06:17:25;15.50;93.00
38798;SHT11;24546;52.240;16.826;2022-09-06T06:22:26;15.70;93.10
38798;SHT11;24546;52.240;16.826;2022-09-06T06:27:27;15.90;92.90
38798;SHT11;24546;52.240;16.826;2022-09-06T06:32:27;16.10;92.50
38798;SHT11;24546;52.240;16.826;2022-09-06T06:37:28;16.50;92.10
38798;SHT11;24546;52.240;16.826;2022-09-06T06:42:32;16.80;91.30
38798;SHT11;24546;52.240;16.826;2022-09-06T06:47:33;17.00;91.20
38798;SHT11;24546;52.240;16.826;2022-09-06T06:52:33;17.20;91.30
38798;SHT11;24546;52.240;16.826;2022-09-06T06:57:34;17.30;91.40
38798;SHT11;24546;52.240;16.826;2022-09-06T07:02:35;17.40;90.40
38798;SHT11;24546;52.240;16.826;2022-09-06T07:07:36;17.50;90.60
38798;SHT11;24546;52.240;16.826;2022-09-06T07:12:37;17.90;90.60
38798;SHT11;24546;52.240;16.826;2022-09-06T07:17:37;18.10;90.50
38798;SHT11;24546;52.240;16.826;2022-09-06T07:22:39;18.50;89.00
38798;SHT11;24546;52.240;16.826;2022-09-06T07:27:40;18.60;88.00
38798;SHT11;24546;52.240;16.826;2022-09-06T07:32:43;18.70;89.40
38798;SHT11;24546;52.240;16.826;2022-09-06T07:37:54;18.70;87.90
38798;SHT11;24546;52.240;16.826;2022-09-06T07:42:57;19.10;88.70
38798;SHT11;24546;52.240;16.826;2022-09-06T07:47:58;19.50;85.80
38798;SHT11;24546;52.240;16.826;2022-09-06T07:53:09;19.80;85.70
38798;SHT11;24546;52.240;16.826;2022-09-06T07:58:10;20.10;86.10
38798;SHT11;24546;52.240;16.826;2022-09-06T08:03:11;20.70;84.50
38798;SHT11;24546;52.240;16.826;2022-09-06T08:08:12;21.30;82.00
38798;SHT11;24546;52.240;16.826;2022-09-06T08:13:12;21.80;80.00
38798;SHT11;24546;52.240;16.826;2022-09-06T08:18:13;22.30;78.30
38798;SHT11;24546;52.240;16.826;2022-09-06T08:23:17;22.80;78.30
38798;SHT11;24546;52.240;16.826;2022-09-06T08:28:20;23.50;77.10
38798;SHT11;24546;52.240;16.826;2022-09-06T08:33:21;23.80;76.70
38798;SHT11;24546;52.240;16.826;2022-09-06T08:38:26;24.30;75.80
38798;SHT11;24546;52.240;16.826;2022-09-06T08:43:29;24.70;74.20
38798;SHT11;24546;52.240;16.826;2022-09-06T08:48:32;24.60;71.70
38798;SHT11;24546;52.240;16.826;2022-09-06T08:53:39;24.50;71.90
38798;SHT11;24546;52.240;16.826;2022-09-06T09:03:57;24.60;70.10
38798;SHT11;24546;52.240;16.826;2022-09-06T09:09:12;24.50;71.00
38798;SHT11;24546;52.240;16.826;2022-09-06T09:14:26;24.80;72.80
38798;SHT11;24546;52.240;16.826;2022-09-06T09:19:28;25.10;69.60
38798;SHT11;24546;52.240;16.826;2022-09-06T09:24:34;25.40;70.90
38798;SHT11;24546;52.240;16.826;2022-09-06T09:30:04;25.30;68.30
38798;SHT11;24546;52.240;16.826;2022-09-06T09:45:29;26.50;67.80
38798;SHT11;24546;52.240;16.826;2022-09-06T09:50:33;26.80;67.40
38798;SHT11;24546;52.240;16.826;2022-09-06T09:55:34;26.90;66.40
38798;SHT11;24546;52.240;16.826;2022-09-06T10:00:38;26.40;65.50
38798;SHT11;24546;52.240;16.826;2022-09-06T10:05:54;26.20;65.90
38798;SHT11;24546;52.240;16.826;2022-09-06T10:10:55;26.30;65.90
38798;SHT11;24546;52.240;16.826;2022-09-06T10:15:58;26.40;66.60
38798;SHT11;24546;52.240;16.826;2022-09-06T10:21:02;26.40;66.10
38798;SHT11;24546;52.240;16.826;2022-09-06T10:26:25;26.50;64.40
38798;SHT11;24546;52.240;16.826;2022-09-06T10:31:35;26.70;63.10
38798;SHT11;24546;52.240;16.826;2022-09-06T10:36:42;26.20;63.00
38798;SHT11;24546;52.240;16.826;2022-09-06T10:47:21;26.30;61.80
38798;SHT11;24546;52.240;16.826;2022-09-06T10:52:25;26.60;64.00
38798;SHT11;24546;52.240;16.826;2022-09-06T10:57:50;26.60;63.50
38798;SHT11;24546;52.240;16.826;2022-09-06T11:08:38;26.80;64.10
38798;SHT11;24546;52.240;16.826;2022-09-06T11:13:43;26.50;62.20
38798;SHT11;24546;52.240;16.826;2022-09-06T11:19:02;26.40;63.70
38798;SHT11;24546;52.240;16.826;2022-09-06T11:24:13;26.60;63.70
38798;SHT11;24546;52.240;16.826;2022-09-06T11:29:21;26.70;62.40
38798;SHT11;24546;52.240;16.826;2022-09-06T11:34:36;26.80;61.60
38798;SHT11;24546;52.240;16.826;2022-09-06T11:39:41;26.60;62.40
38798;SHT11;24546;52.240;16.826;2022-09-06T11:45:12;26.20;62.60
38798;SHT11;24546;52.240;16.826;2022-09-06T12:00:31;26.60;63.70
38798;SHT11;24546;52.240;16.826;2022-09-06T12:05:32;26.60;62.70
38798;SHT11;24546;52.240;16.826;2022-09-06T12:15:50;26.60;62.10
38798;SHT11;24546;52.240;16.826;2022-09-06T12:25:53;26.40;64.60
38798;SHT11;24546;52.240;16.826;2022-09-06T12:30:54;26.30;61.50
38798;SHT11;24546;52.240;16.826;2022-09-06T12:41:12;25.40;62.70
38798;SHT11;24546;52.240;16.826;2022-09-06T12:46:13;25.60;62.30
38798;SHT11;24546;52.240;16.826;2022-09-06T12:51:19;25.40;63.10
38798;SHT11;24546;52.240;16.826;2022-09-06T12:56:21;25.50;63.80
38798;SHT11;24546;52.240;16.826;2022-09-06T13:01:28;25.80;64.90
38798;SHT11;24546;52.240;16.826;2022-09-06T13:06:34;25.70;63.30
38798;SHT11;24546;52.240;16.826;2022-09-06T13:11:49;25.30;64.60
38798;SHT11;24546;52.240;16.826;2022-09-06T13:16:52;25.30;64.10
38798;SHT11;24546;52.240;16.826;2022-09-06T13:21:53;25.60;63.30
38798;SHT11;24546;52.240;16.826;2022-09-06T13:26:54;25.60;61.40
38798;SHT11;24546;52.240;16.826;2022-09-06T13:31:57;25.10;62.70
38798;SHT11;24546;52.240;16.826;2022-09-06T13:37:05;25.30;61.50
38798;SHT11;24546;52.240;16.826;2022-09-06T13:42:21;25.30;62.90
38798;SHT11;24546;52.240;16.826;2022-09-06T13:47:27;25.40;62.20
38798;SHT11;24546;52.240;16.826;2022-09-06T13:52:28;25.10;62.40
38798;SHT11;24546;52.240;16.826;2022-09-06T13:57:30;24.80;63.70
38798;SHT11;24546;52.240;16.826;2022-09-06T14:02:30;24.90;63.80
38798;SHT11;24546;52.240;16.826;2022-09-06T14:07:31;24.90;62.40
38798;SHT11;24546;52.240;16.826;2022-09-06T14:12:32;24.80;63.50
38798;SHT11;24546;52.240;16.826;2022-09-06T14:17:34;24.70;64.20
38798;SHT11;24546;52.240;16.826;2022-09-06T14:22:34;24.70;64.00
38798;SHT11;24546;52.240;16.826;2022-09-06T14:27:35;24.70;63.10
38798;SHT11;24546;52.240;16.826;2022-09-06T14:32:36;24.50;63.40
38798;SHT11;24546;52.240;16.826;2022-09-06T14:37:37;24.70;66.40
38798;SHT11;24546;52.240;16.826;2022-09-06T14:42:39;24.50;64.90
38798;SHT11;24546;52.240;16.826;2022-09-06T14:47:40;24.60;65.00
38798;SHT11;24546;52.240;16.826;2022-09-06T14:52:41;24.30;64.40
38798;SHT11;24546;52.240;16.826;2022-09-06T14:57:41;24.30;65.50
38798;SHT11;24546;52.240;16.826;2022-09-06T15:02:43;24.20;64.90
38798;SHT11;24546;52.240;16.826;2022-09-06T15:07:44;24.20;65.30
38798;SHT11;24546;52.240;16.826;2022-09-06T15:12:45;24.00;66.40
38798;SHT11;24546;52.240;16.826;2022-09-06T15:17:45;23.90;66.80
38798;SHT11;24546;52.240;16.826;2022-09-06T15:22:46;23.80;65.80
38798;SHT11;24546;52.240;16.826;2022-09-06T15:27:47;23.60;65.70
38798;SHT11;24546;52.240;16.826;2022-09-06T15:32:49;23.40;66.20
38798;SHT11;24546;52.240;16.826;2022-09-06T15:37:49;23.30;67.30
38798;SHT11;24546;52.240;16.826;2022-09-06T15:42:50;23.20;66.30
38798;SHT11;24546;52.240;16.826;2022-09-06T15:47:53;23.20;69.20
38798;SHT11;24546;52.240;16.826;2022-09-06T15:52:55;23.40;67.40
38798;SHT11;24546;52.240;16.826;2022-09-06T15:57:56;23.50;69.20
38798;SHT11;24546;52.240;16.826;2022-09-06T16:02:56;23.50;66.90
38798;SHT11;24546;52.240;16.826;2022-09-06T16:07:57;23.30;68.90
38798;SHT11;24546;52.240;16.826;2022-09-06T16:12:58;23.20;67.00
38798;SHT11;24546;52.240;16.826;2022-09-06T16:17:59;23.20;69.50
38798;SHT11;24546;52.240;16.826;2022-09-06T16:23:04;23.10;69.50
38798;SHT11;24546;52.240;16.826;2022-09-06T16:28:05;22.80;68.30
38798;SHT11;24546;52.240;16.826;2022-09-06T16:33:06;23.00;71.60
38798;SHT11;24546;52.240;16.826;2022-09-06T16:38:08;22.90;69.60
38798;SHT11;24546;52.240;16.826;2022-09-06T16:43:09;22.90;72.30
38798;SHT11;24546;52.240;16.826;2022-09-06T16:48:10;22.70;69.80
38798;SHT11;24546;52.240;16.826;2022-09-06T16:53:11;22.50;69.90
38798;SHT11;24546;52.240;16.826;2022-09-06T16:58:13;22.40;71.10
38798;SHT11;24546;52.240;16.826;2022-09-06T17:03:14;22.60;72.30
38798;SHT11;24546;52.240;16.826;2022-09-06T17:08:15;22.30;73.50
38798;SHT11;24546;52.240;16.826;2022-09-06T17:13:15;22.30;73.20
38798;SHT11;24546;52.240;16.826;2022-09-06T17:18:16;22.20;73.80
38798;SHT11;24546;52.240;16.826;2022-09-06T17:23:17;22.10;73.50
38798;SHT11;24546;52.240;16.826;2022-09-06T17:28:18;22.00;73.90
38798;SHT11;24546;52.240;16.826;2022-09-06T17:33:19;21.80;74.70
38798;SHT11;24546;52.240;16.826;2022-09-06T17:38:21;21.70;74.90
38798;SHT11;24546;52.240;16.826;2022-09-06T17:43:22;21.60;75.00
38798;SHT11;24546;52.240;16.826;2022-09-06T17:48:23;21.40;75.50
38798;SHT11;24546;52.240;16.826;2022-09-06T17:53:27;21.10;76.50
38798;SHT11;24546;52.240;16.826;2022-09-06T17:58:27;21.10;76.20
38798;SHT11;24546;52.240;16.826;2022-09-06T18:03:29;20.90;76.20
38798;SHT11;24546;52.240;16.826;2022-09-06T18:08:30;20.90;77.40
38798;SHT11;24546;52.240;16.826;2022-09-06T18:13:31;20.80;78.10
38798;SHT11;24546;52.240;16.826;2022-09-06T18:18:34;20.70;77.00
38798;SHT11;24546;52.240;16.826;2022-09-06T18:23:35;20.60;79.00
38798;SHT11;24546;52.240;16.826;2022-09-06T18:28:36;20.50;78.50
38798;SHT11;24546;52.240;16.826;2022-09-06T18:33:38;20.40;79.70
38798;SHT11;24546;52.240;16.826;2022-09-06T18:38:39;20.50;79.50
38798;SHT11;24546;52.240;16.826;2022-09-06T18:43:42;20.30;79.90
38798;SHT11;24546;52.240;16.826;2022-09-06T18:48:43;20.30;80.50
38798;SHT11;24546;52.240;16.826;2022-09-06T18:53:44;20.30;80.80
38798;SHT11;24546;52.240;16.826;2022-09-06T18:58:46;20.20;79.40
38798;SHT11;24546;52.240;16.826;2022-09-06T19:03:47;20.00;80.40
38798;SHT11;24546;52.240;16.826;2022-09-06T19:08:48;20.00;81.40
38798;SHT11;24546;52.240;16.826;2022-09-06T19:13:51;19.80;79.80
38798;SHT11;24546;52.240;16.826;2022-09-06T19:18:52;19.60;82.10
38798;SHT11;24546;52.240;16.826;2022-09-06T19:23:57;19.50;82.70
38798;SHT11;24546;52.240;16.826;2022-09-06T19:29:04;19.40;83.30
38798;SHT11;24546;52.240;16.826;2022-09-06T19:34:06;19.20;84.10
38798;SHT11;24546;52.240;16.826;2022-09-06T19:39:09;19.00;82.00
38798;SHT11;24546;52.240;16.826;2022-09-06T19:44:12;18.60;82.40
38798;SHT11;24546;52.240;16.826;2022-09-06T19:49:15;18.50;82.30
38798;SHT11;24546;52.240;16.826;2022-09-06T19:54:16;18.50;82.30
38798;SHT11;24546;52.240;16.826;2022-09-06T19:59:17;18.50;83.40
38798;SHT11;24546;52.240;16.826;2022-09-06T20:04:20;18.20;82.90
38798;SHT11;24546;52.240;16.826;2022-09-06T20:09:21;18.10;82.90
38798;SHT11;24546;52.240;16.826;2022-09-06T20:14:22;18.20;83.10
38798;SHT11;24546;52.240;16.826;2022-09-06T20:19:25;17.90;83.50
38798;SHT11;24546;52.240;16.826;2022-09-06T20:24:26;18.10;83.60
38798;SHT11;24546;52.240;16.826;2022-09-06T20:29:27;18.00;83.50
38798;SHT11;24546;52.240;16.826;2022-09-06T20:34:28;17.70;83.30
38798;SHT11;24546;52.240;16.826;2022-09-06T20:39:30;17.80;83.90
38798;SHT11;24546;52.240;16.826;2022-09-06T20:44:30;17.80;83.80
38798;SHT11;24546;52.240;16.826;2022-09-06T20:49:31;17.80;83.40
38798;SHT11;24546;52.240;16.826;2022-09-06T20:54:32;17.80;83.40
38798;SHT11;24546;52.240;16.826;2022-09-06T20:59:33;17.80;83.30
38798;SHT11;24546;52.240;16.826;2022-09-06T21:04:34;17.80;83.00
38798;SHT11;24546;52.240;16.826;2022-09-06T21:09:35;17.70;83.60
38798;SHT11;24546;52.240;16.826;2022-09-06T21:14:36;17.70;83.80
38798;SHT11;24546;52.240;16.826;2022-09-06T21:19:37;17.80;83.70
38798;SHT11;24546;52.240;16.826;2022-09-06T21:24:39;17.90;83.70
38798;SHT11;24546;52.240;16.826;2022-09-06T21:29:40;18.00;83.70
38798;SHT11;24546;52.240;16.826;2022-09-06T21:34:41;17.80;84.50
38798;SHT11;24546;52.240;16.826;2022-09-06T21:39:42;17.60;84.70
38798;SHT11;24546;52.240;16.826;2022-09-06T21:44:43;17.50;84.10
38798;SHT11;24546;52.240;16.826;2022-09-06T21:49:44;17.50;84.00
38798;SHT11;24546;52.240;16.826;2022-09-06T21:54:45;17.50;83.90
38798;SHT11;24546;52.240;16.826;2022-09-06T21:59:46;17.30;84.70
38798;SHT11;24546;52.240;16.826;2022-09-06T22:04:47;17.10;84.90
38798;SHT11;24546;52.240;16.826;2022-09-06T22:09:48;17.20;85.90
38798;SHT11;24546;52.240;16.826;2022-09-06T22:14:49;17.00;85.40
38798;SHT11;24546;52.240;16.826;2022-09-06T22:19:50;16.80;85.50
38798;SHT11;24546;52.240;16.826;2022-09-06T22:24:51;17.00;86.90
38798;SHT11;24546;52.240;16.826;2022-09-06T22:29:52;16.80;85.80
38798;SHT11;24546;52.240;16.826;2022-09-06T22:34:53;16.50;86.10
38798;SHT11;24546;52.240;16.826;2022-09-06T22:39:54;16.50;87.10
38798;SHT11;24546;52.240;16.826;2022-09-06T22:44:55;16.50;86.00
38798;SHT11;24546;52.240;16.826;2022-09-06T22:49:56;16.50;87.80
38798;SHT11;24546;52.240;16.826;2022-09-06T22:54:58;16.60;87.10
38798;SHT11;24546;52.240;16.826;2022-09-06T22:59:58;16.40;87.00
38798;SHT11;24546;52.240;16.826;2022-09-06T23:04:59;16.00;87.10
38798;SHT11;24546;52.240;16.826;2022-09-06T23:10:00;16.20;87.60
38798;SHT11;24546;52.240;16.826;2022-09-06T23:15:01;16.00;87.90
38798;SHT11;24546;52.240;16.826;2022-09-06T23:20:02;15.90;88.30
38798;SHT11;24546;52.240;16.826;2022-09-06T23:25:03;15.70;87.90
38798;SHT11;24546;52.240;16.826;2022-09-06T23:30:05;15.70;88.20
38798;SHT11;24546;52.240;16.826;2022-09-06T23:35:06;15.70;88.20
38798;SHT11;24546;52.240;16.826;2022-09-06T23:40:08;15.60;89.20
38798;SHT11;24546;52.240;16.826;2022-09-06T23:45:09;15.60;89.10
38798;SHT11;24546;52.240;16.826;2022-09-06T23:50:10;15.60;90.00
38798;SHT11;24546;52.240;16.826;2022-09-06T23:55:11;15.60;89.50
